sensor_id;sensor_type;location;lat;lon;timestamp;P1;durP1;ratioP1;P2;durP2;ratioP2
44558;SDS011;30270;40.238;18.256;2022-12-13T00:01:25;7.55;;;4.18;;
44558;SDS011;30270;40.238;18.256;2022-12-13T00:03:55;6.63;;;4.70;;
44558;SDS011;30270;40.238;18.256;2022-12-13T00:06:24;6.53;;;4.63;;
44558;SDS011;30270;40.238;18.256;2022-12-13T00:08:52;8.52;;;5.15;;
44558;SDS011;30270;40.238;18.256;2022-12-13T00:11:20;8.10;;;5.28;;
44558;SDS011;30270;40.238;18.256;2022-12-13T00:13:48;8.45;;;4.72;;
44558;SDS011;30270;40.238;18.256;2022-12-13T00:16:17;5.65;;;4.32;;
44558;SDS011;30270;40.238;18.256;2022-12-13T00:18:48;7.10;;;3.67;;
44558;SDS011;30270;40.238;18.256;2022-12-13T00:21:18;5.60;;;3.80;;
44558;SDS011;30270;40.238;18.256;2022-12-13T00:23:47;5.97;;;3.67;;
44558;SDS011;30270;40.238;18.256;2022-12-13T00:26:16;7.85;;;4.88;;
44558;SDS011;30270;40.238;18.256;2022-12-13T00:28:45;8.40;;;4.65;;
44558;SDS011;30270;40.238;18.256;2022-12-13T00:31:15;9.07;;;5.28;;
44558;SDS011;30270;40.238;18.256;2022-12-13T00:34:03;6.78;;;4.05;;
44558;SDS011;30270;40.238;18.256;2022-12-13T00:36:31;6.88;;;4.55;;
44558;SDS011;30270;40.238;18.256;2022-12-13T00:38:58;6.50;;;4.93;;
44558;SDS011;30270;40.238;18.256;2022-12-13T00:41:28;16.83;;;6.28;;
44558;SDS011;30270;40.238;18.256;2022-12-13T00:43:57;8.43;;;4.82;;
44558;SDS011;30270;40.238;18.256;2022-12-13T00:46:26;6.32;;;4.47;;
44558;SDS011;30270;40.238;18.256;2022-12-13T00:48:55;6.30;;;4.28;;
44558;SDS011;30270;40.238;18.256;2022-12-13T00:51:25;6.80;;;3.97;;
44558;SDS011;30270;40.238;18.256;2022-12-13T00:53:54;5.55;;;3.65;;
44558;SDS011;30270;40.238;18.256;2022-12-13T00:56:22;9.20;;;4.63;;
44558;SDS011;30270;40.238;18.256;2022-12-13T00:58:51;5.88;;;3.88;;
44558;SDS011;30270;40.238;18.256;2022-12-13T01:01:24;5.75;;;4.13;;
44558;SDS011;30270;40.238;18.256;2022-12-13T01:03:54;6.07;;;3.50;;
44558;SDS011;30270;40.238;18.256;2022-12-13T01:06:24;7.35;;;3.25;;
44558;SDS011;30270;40.238;18.256;2022-12-13T01:08:55;7.45;;;4.10;;
44558;SDS011;30270;40.238;18.256;2022-12-13T01:11:23;6.05;;;3.65;;
44558;SDS011;30270;40.238;18.256;2022-12-13T01:13:51;4.63;;;3.55;;
44558;SDS011;30270;40.238;18.256;2022-12-13T01:16:19;7.53;;;3.50;;
44558;SDS011;30270;40.238;18.256;2022-12-13T01:18:47;11.00;;;5.18;;
44558;SDS011;30270;40.238;18.256;2022-12-13T01:21:16;6.13;;;3.15;;
44558;SDS011;30270;40.238;18.256;2022-12-13T01:23:44;6.40;;;3.75;;
44558;SDS011;30270;40.238;18.256;2022-12-13T01:26:14;5.88;;;3.38;;
44558;SDS011;30270;40.238;18.256;2022-12-13T01:28:44;6.13;;;3.70;;
44558;SDS011;30270;40.238;18.256;2022-12-13T01:31:13;4.15;;;3.20;;
44558;SDS011;30270;40.238;18.256;2022-12-13T01:33:43;5.50;;;2.67;;
44558;SDS011;30270;40.238;18.256;2022-12-13T01:36:12;5.90;;;3.13;;
44558;SDS011;30270;40.238;18.256;2022-12-13T01:38:41;9.52;;;3.30;;
44558;SDS011;30270;40.238;18.256;2022-12-13T01:41:12;6.28;;;2.97;;
44558;SDS011;30270;40.238;18.256;2022-12-13T01:46:13;4.35;;;2.65;;
44558;SDS011;30270;40.238;18.256;2022-12-13T01:48:53;5.90;;;3.50;;
44558;SDS011;30270;40.238;18.256;2022-12-13T01:51:37;4.70;;;2.80;;
44558;SDS011;30270;40.238;18.256;2022-12-13T01:54:10;4.70;;;2.78;;
44558;SDS011;30270;40.238;18.256;2022-12-13T01:56:43;6.55;;;2.70;;
44558;SDS011;30270;40.238;18.256;2022-12-13T01:59:18;3.65;;;2.45;;
44558;SDS011;30270;40.238;18.256;2022-12-13T02:01:48;6.65;;;2.40;;
44558;SDS011;30270;40.238;18.256;2022-12-13T02:04:17;4.70;;;2.67;;
44558;SDS011;30270;40.238;18.256;2022-12-13T02:06:54;3.30;;;2.70;;
44558;SDS011;30270;40.238;18.256;2022-12-13T02:09:23;3.70;;;2.25;;
44558;SDS011;30270;40.238;18.256;2022-12-13T02:11:52;4.18;;;2.45;;
44558;SDS011;30270;40.238;18.256;2022-12-13T02:14:20;5.13;;;2.85;;
44558;SDS011;30270;40.238;18.256;2022-12-13T02:31:17;2.30;;;1.80;;
44558;SDS011;30270;40.238;18.256;2022-12-13T02:34:17;3.22;;;2.28;;
44558;SDS011;30270;40.238;18.256;2022-12-13T02:37:06;4.28;;;2.10;;
44558;SDS011;30270;40.238;18.256;2022-12-13T02:39:53;3.55;;;2.10;;
44558;SDS011;30270;40.238;18.256;2022-12-13T02:42:26;6.72;;;2.78;;
44558;SDS011;30270;40.238;18.256;2022-12-13T02:47:44;5.32;;;1.85;;
44558;SDS011;30270;40.238;18.256;2022-12-13T02:50:13;4.57;;;2.72;;
44558;SDS011;30270;40.238;18.256;2022-12-13T02:52:41;5.15;;;2.38;;
44558;SDS011;30270;40.238;18.256;2022-12-13T02:55:12;3.85;;;2.33;;
44558;SDS011;30270;40.238;18.256;2022-12-13T02:57:43;3.38;;;2.55;;
44558;SDS011;30270;40.238;18.256;2022-12-13T03:00:22;3.53;;;2.08;;
44558;SDS011;30270;40.238;18.256;2022-12-13T03:05:49;3.53;;;1.95;;
44558;SDS011;30270;40.238;18.256;2022-12-13T03:11:21;5.28;;;2.83;;
44558;SDS011;30270;40.238;18.256;2022-12-13T03:14:01;9.98;;;2.20;;
44558;SDS011;30270;40.238;18.256;2022-12-13T03:19:06;3.63;;;2.00;;
44558;SDS011;30270;40.238;18.256;2022-12-13T03:21:40;3.40;;;2.03;;
44558;SDS011;30270;40.238;18.256;2022-12-13T03:24:15;3.28;;;2.00;;
44558;SDS011;30270;40.238;18.256;2022-12-13T03:26:44;4.32;;;2.13;;
44558;SDS011;30270;40.238;18.256;2022-12-13T03:29:14;4.70;;;2.30;;
44558;SDS011;30270;40.238;18.256;2022-12-13T03:31:42;8.63;;;3.53;;
44558;SDS011;30270;40.238;18.256;2022-12-13T03:34:09;2.58;;;1.70;;
44558;SDS011;30270;40.238;18.256;2022-12-13T03:36:37;3.20;;;2.00;;
44558;SDS011;30270;40.238;18.256;2022-12-13T03:39:05;4.43;;;2.20;;
44558;SDS011;30270;40.238;18.256;2022-12-13T03:41:33;3.30;;;1.90;;
44558;SDS011;30270;40.238;18.256;2022-12-13T03:44:04;7.65;;;2.92;;
44558;SDS011;30270;40.238;18.256;2022-12-13T03:46:33;5.90;;;4.25;;
44558;SDS011;30270;40.238;18.256;2022-12-13T03:49:01;4.85;;;3.15;;
44558;SDS011;30270;40.238;18.256;2022-12-13T03:51:28;3.00;;;2.00;;
44558;SDS011;30270;40.238;18.256;2022-12-13T03:53:56;2.95;;;1.77;;
44558;SDS011;30270;40.238;18.256;2022-12-13T03:56:23;5.22;;;2.20;;
44558;SDS011;30270;40.238;18.256;2022-12-13T03:58:52;4.60;;;1.92;;
44558;SDS011;30270;40.238;18.256;2022-12-13T04:01:19;5.00;;;2.55;;
44558;SDS011;30270;40.238;18.256;2022-12-13T04:03:47;5.65;;;3.15;;
44558;SDS011;30270;40.238;18.256;2022-12-13T04:06:15;3.40;;;2.22;;
44558;SDS011;30270;40.238;18.256;2022-12-13T04:08:43;4.72;;;3.22;;
44558;SDS011;30270;40.238;18.256;2022-12-13T04:11:10;7.68;;;3.60;;
44558;SDS011;30270;40.238;18.256;2022-12-13T04:13:56;5.00;;;2.90;;
44558;SDS011;30270;40.238;18.256;2022-12-13T04:16:24;3.38;;;1.80;;
44558;SDS011;30270;40.238;18.256;2022-12-13T04:18:51;2.95;;;2.08;;
44558;SDS011;30270;40.238;18.256;2022-12-13T04:21:19;4.22;;;2.20;;
44558;SDS011;30270;40.238;18.256;2022-12-13T04:23:47;4.00;;;2.03;;
44558;SDS011;30270;40.238;18.256;2022-12-13T04:26:14;3.83;;;2.55;;
44558;SDS011;30270;40.238;18.256;2022-12-13T04:28:42;4.10;;;2.42;;
44558;SDS011;30270;40.238;18.256;2022-12-13T04:31:10;6.35;;;2.47;;
44558;SDS011;30270;40.238;18.256;2022-12-13T04:33:38;4.47;;;2.10;;
44558;SDS011;30270;40.238;18.256;2022-12-13T04:36:05;5.15;;;2.85;;
44558;SDS011;30270;40.238;18.256;2022-12-13T04:38:33;4.80;;;3.08;;
44558;SDS011;30270;40.238;18.256;2022-12-13T04:41:07;4.38;;;2.45;;
44558;SDS011;30270;40.238;18.256;2022-12-13T04:43:41;5.43;;;2.70;;
44558;SDS011;30270;40.238;18.256;2022-12-13T04:46:10;4.80;;;3.15;;
44558;SDS011;30270;40.238;18.256;2022-12-13T04:48:37;8.07;;;4.32;;
44558;SDS011;30270;40.238;18.256;2022-12-13T04:51:05;6.07;;;4.68;;
44558;SDS011;30270;40.238;18.256;2022-12-13T04:53:32;6.82;;;4.90;;
44558;SDS011;30270;40.238;18.256;2022-12-13T04:56:01;6.95;;;4.70;;
44558;SDS011;30270;40.238;18.256;2022-12-13T04:58:30;8.07;;;5.40;;
44558;SDS011;30270;40.238;18.256;2022-12-13T05:00:58;7.60;;;5.57;;
44558;SDS011;30270;40.238;18.256;2022-12-13T05:03:25;8.32;;;4.25;;
44558;SDS011;30270;40.238;18.256;2022-12-13T05:05:54;9.52;;;5.60;;
44558;SDS011;30270;40.238;18.256;2022-12-13T05:08:22;7.88;;;4.38;;
44558;SDS011;30270;40.238;18.256;2022-12-13T05:10:50;6.80;;;4.22;;
44558;SDS011;30270;40.238;18.256;2022-12-13T05:13:17;6.70;;;4.15;;
44558;SDS011;30270;40.238;18.256;2022-12-13T05:15:44;7.63;;;4.43;;
44558;SDS011;30270;40.238;18.256;2022-12-13T05:18:15;6.00;;;3.65;;
44558;SDS011;30270;40.238;18.256;2022-12-13T05:20:42;7.45;;;3.90;;
44558;SDS011;30270;40.238;18.256;2022-12-13T05:23:09;7.03;;;3.92;;
44558;SDS011;30270;40.238;18.256;2022-12-13T05:25:37;7.03;;;4.28;;
44558;SDS011;30270;40.238;18.256;2022-12-13T05:28:04;6.72;;;3.90;;
44558;SDS011;30270;40.238;18.256;2022-12-13T05:30:32;3.95;;;3.13;;
44558;SDS011;30270;40.238;18.256;2022-12-13T05:32:59;4.35;;;2.88;;
44558;SDS011;30270;40.238;18.256;2022-12-13T05:35:27;5.13;;;3.28;;
44558;SDS011;30270;40.238;18.256;2022-12-13T05:37:54;6.95;;;4.53;;
44558;SDS011;30270;40.238;18.256;2022-12-13T05:40:22;6.10;;;4.20;;
44558;SDS011;30270;40.238;18.256;2022-12-13T05:42:51;4.90;;;3.20;;
44558;SDS011;30270;40.238;18.256;2022-12-13T05:45:19;4.85;;;3.10;;
44558;SDS011;30270;40.238;18.256;2022-12-13T05:47:47;12.65;;;3.97;;
44558;SDS011;30270;40.238;18.256;2022-12-13T05:50:16;3.85;;;2.65;;
44558;SDS011;30270;40.238;18.256;2022-12-13T05:52:44;6.22;;;3.30;;
44558;SDS011;30270;40.238;18.256;2022-12-13T05:55:12;3.72;;;2.90;;
44558;SDS011;30270;40.238;18.256;2022-12-13T05:57:39;7.68;;;3.38;;
44558;SDS011;30270;40.238;18.256;2022-12-13T06:00:07;4.32;;;2.53;;
44558;SDS011;30270;40.238;18.256;2022-12-13T06:02:40;5.25;;;3.15;;
44558;SDS011;30270;40.238;18.256;2022-12-13T06:05:09;4.35;;;2.88;;
44558;SDS011;30270;40.238;18.256;2022-12-13T06:07:37;3.50;;;2.72;;
44558;SDS011;30270;40.238;18.256;2022-12-13T06:10:05;4.70;;;3.35;;
44558;SDS011;30270;40.238;18.256;2022-12-13T06:12:34;6.65;;;3.67;;
44558;SDS011;30270;40.238;18.256;2022-12-13T06:15:02;5.75;;;3.08;;
44558;SDS011;30270;40.238;18.256;2022-12-13T06:17:32;7.75;;;3.67;;
44558;SDS011;30270;40.238;18.256;2022-12-13T06:20:02;6.15;;;2.92;;
44558;SDS011;30270;40.238;18.256;2022-12-13T06:22:31;6.03;;;3.30;;
44558;SDS011;30270;40.238;18.256;2022-12-13T06:24:59;5.20;;;3.08;;
44558;SDS011;30270;40.238;18.256;2022-12-13T06:27:30;7.80;;;4.00;;
44558;SDS011;30270;40.238;18.256;2022-12-13T06:29:57;4.72;;;3.00;;
44558;SDS011;30270;40.238;18.256;2022-12-13T06:32:28;3.40;;;2.38;;
44558;SDS011;30270;40.238;18.256;2022-12-13T06:34:55;6.20;;;3.15;;
44558;SDS011;30270;40.238;18.256;2022-12-13T06:37:23;4.63;;;2.42;;
44558;SDS011;30270;40.238;18.256;2022-12-13T06:39:50;5.93;;;3.58;;
44558;SDS011;30270;40.238;18.256;2022-12-13T06:42:18;7.85;;;4.70;;
44558;SDS011;30270;40.238;18.256;2022-12-13T06:44:46;7.82;;;4.50;;
44558;SDS011;30270;40.238;18.256;2022-12-13T06:47:17;19.38;;;12.95;;
44558;SDS011;30270;40.238;18.256;2022-12-13T06:49:45;17.52;;;11.25;;
44558;SDS011;30270;40.238;18.256;2022-12-13T06:52:12;5.50;;;3.55;;
44558;SDS011;30270;40.238;18.256;2022-12-13T06:54:40;6.22;;;3.90;;
44558;SDS011;30270;40.238;18.256;2022-12-13T06:57:12;8.45;;;3.35;;
44558;SDS011;30270;40.238;18.256;2022-12-13T06:59:40;3.63;;;2.38;;
44558;SDS011;30270;40.238;18.256;2022-12-13T07:02:07;6.05;;;2.70;;
44558;SDS011;30270;40.238;18.256;2022-12-13T07:04:35;8.13;;;2.83;;
44558;SDS011;30270;40.238;18.256;2022-12-13T07:07:03;5.35;;;2.47;;
44558;SDS011;30270;40.238;18.256;2022-12-13T07:09:31;5.32;;;2.53;;
44558;SDS011;30270;40.238;18.256;2022-12-13T07:11:58;5.10;;;2.58;;
44558;SDS011;30270;40.238;18.256;2022-12-13T07:14:26;6.32;;;3.85;;
44558;SDS011;30270;40.238;18.256;2022-12-13T07:16:54;9.25;;;4.55;;
44558;SDS011;30270;40.238;18.256;2022-12-13T07:19:26;5.47;;;3.20;;
44558;SDS011;30270;40.238;18.256;2022-12-13T07:21:54;5.20;;;2.92;;
44558;SDS011;30270;40.238;18.256;2022-12-13T07:24:22;4.30;;;2.45;;
44558;SDS011;30270;40.238;18.256;2022-12-13T07:26:49;11.30;;;3.65;;
44558;SDS011;30270;40.238;18.256;2022-12-13T07:29:17;5.72;;;2.80;;
44558;SDS011;30270;40.238;18.256;2022-12-13T07:31:44;3.40;;;2.55;;
44558;SDS011;30270;40.238;18.256;2022-12-13T07:34:12;5.72;;;2.70;;
44558;SDS011;30270;40.238;18.256;2022-12-13T07:36:41;7.20;;;5.05;;
44558;SDS011;30270;40.238;18.256;2022-12-13T07:39:09;7.63;;;5.35;;
44558;SDS011;30270;40.238;18.256;2022-12-13T07:41:38;8.68;;;4.63;;
44558;SDS011;30270;40.238;18.256;2022-12-13T07:44:06;8.65;;;5.28;;
44558;SDS011;30270;40.238;18.256;2022-12-13T07:46:33;13.15;;;9.40;;
44558;SDS011;30270;40.238;18.256;2022-12-13T07:49:01;15.23;;;8.35;;
44558;SDS011;30270;40.238;18.256;2022-12-13T07:51:31;11.82;;;5.28;;
44558;SDS011;30270;40.238;18.256;2022-12-13T07:54:00;9.05;;;5.68;;
44558;SDS011;30270;40.238;18.256;2022-12-13T07:56:28;9.13;;;5.68;;
44558;SDS011;30270;40.238;18.256;2022-12-13T07:58:56;10.77;;;7.45;;
44558;SDS011;30270;40.238;18.256;2022-12-13T08:01:23;14.80;;;8.05;;
44558;SDS011;30270;40.238;18.256;2022-12-13T08:03:51;28.75;;;17.15;;
44558;SDS011;30270;40.238;18.256;2022-12-13T08:06:18;23.77;;;14.88;;
44558;SDS011;30270;40.238;18.256;2022-12-13T08:08:46;16.15;;;11.15;;
44558;SDS011;30270;40.238;18.256;2022-12-13T08:11:16;20.20;;;13.82;;
44558;SDS011;30270;40.238;18.256;2022-12-13T08:13:44;12.32;;;7.60;;
44558;SDS011;30270;40.238;18.256;2022-12-13T08:16:12;15.30;;;8.07;;
44558;SDS011;30270;40.238;18.256;2022-12-13T08:18:44;13.50;;;6.93;;
44558;SDS011;30270;40.238;18.256;2022-12-13T08:21:13;11.02;;;6.57;;
44558;SDS011;30270;40.238;18.256;2022-12-13T08:24:01;21.88;;;13.98;;
44558;SDS011;30270;40.238;18.256;2022-12-13T08:26:29;18.40;;;12.10;;
44558;SDS011;30270;40.238;18.256;2022-12-13T08:28:56;11.82;;;8.00;;
44558;SDS011;30270;40.238;18.256;2022-12-13T08:31:24;9.23;;;5.90;;
44558;SDS011;30270;40.238;18.256;2022-12-13T08:33:52;12.35;;;6.18;;
44558;SDS011;30270;40.238;18.256;2022-12-13T08:36:19;10.20;;;5.50;;
44558;SDS011;30270;40.238;18.256;2022-12-13T08:38:49;12.57;;;7.18;;
44558;SDS011;30270;40.238;18.256;2022-12-13T08:41:20;11.40;;;7.13;;
44558;SDS011;30270;40.238;18.256;2022-12-13T08:43:48;23.00;;;13.73;;
44558;SDS011;30270;40.238;18.256;2022-12-13T08:46:15;28.08;;;16.75;;
44558;SDS011;30270;40.238;18.256;2022-12-13T08:48:43;26.05;;;17.30;;
44558;SDS011;30270;40.238;18.256;2022-12-13T08:51:12;15.50;;;11.20;;
44558;SDS011;30270;40.238;18.256;2022-12-13T08:53:40;9.40;;;6.25;;
44558;SDS011;30270;40.238;18.256;2022-12-13T08:56:11;6.47;;;4.88;;
44558;SDS011;30270;40.238;18.256;2022-12-13T08:58:41;9.05;;;5.88;;
44558;SDS011;30270;40.238;18.256;2022-12-13T09:01:08;6.78;;;4.78;;
44558;SDS011;30270;40.238;18.256;2022-12-13T09:03:36;10.15;;;6.03;;
44558;SDS011;30270;40.238;18.256;2022-12-13T09:06:08;8.90;;;5.88;;
44558;SDS011;30270;40.238;18.256;2022-12-13T09:08:37;11.70;;;6.85;;
44558;SDS011;30270;40.238;18.256;2022-12-13T09:11:05;5.70;;;4.57;;
44558;SDS011;30270;40.238;18.256;2022-12-13T09:13:35;7.35;;;4.95;;
44558;SDS011;30270;40.238;18.256;2022-12-13T09:16:05;11.25;;;5.35;;
44558;SDS011;30270;40.238;18.256;2022-12-13T09:18:34;8.25;;;5.72;;
44558;SDS011;30270;40.238;18.256;2022-12-13T09:21:12;8.18;;;5.55;;
44558;SDS011;30270;40.238;18.256;2022-12-13T09:23:40;12.07;;;6.93;;
44558;SDS011;30270;40.238;18.256;2022-12-13T09:26:09;9.23;;;6.43;;
44558;SDS011;30270;40.238;18.256;2022-12-13T09:28:38;10.27;;;6.00;;
44558;SDS011;30270;40.238;18.256;2022-12-13T09:31:11;9.70;;;5.13;;
44558;SDS011;30270;40.238;18.256;2022-12-13T09:33:40;18.25;;;8.68;;
44558;SDS011;30270;40.238;18.256;2022-12-13T09:36:13;18.92;;;10.18;;
44558;SDS011;30270;40.238;18.256;2022-12-13T09:38:45;13.82;;;8.88;;
44558;SDS011;30270;40.238;18.256;2022-12-13T09:43:47;11.15;;;6.10;;
44558;SDS011;30270;40.238;18.256;2022-12-13T09:46:24;9.75;;;7.07;;
44558;SDS011;30270;40.238;18.256;2022-12-13T09:48:53;8.68;;;6.38;;
44558;SDS011;30270;40.238;18.256;2022-12-13T09:51:22;13.48;;;7.15;;
44558;SDS011;30270;40.238;18.256;2022-12-13T09:53:52;8.98;;;5.45;;
44558;SDS011;30270;40.238;18.256;2022-12-13T09:56:21;7.63;;;5.85;;
44558;SDS011;30270;40.238;18.256;2022-12-13T09:58:50;14.38;;;4.75;;
44558;SDS011;30270;40.238;18.256;2022-12-13T10:01:19;9.93;;;5.63;;
44558;SDS011;30270;40.238;18.256;2022-12-13T10:03:48;6.60;;;4.97;;
44558;SDS011;30270;40.238;18.256;2022-12-13T10:06:19;8.68;;;4.40;;
44558;SDS011;30270;40.238;18.256;2022-12-13T10:08:50;10.00;;;4.70;;
44558;SDS011;30270;40.238;18.256;2022-12-13T10:11:20;7.18;;;5.60;;
44558;SDS011;30270;40.238;18.256;2022-12-13T10:14:08;7.82;;;4.40;;
44558;SDS011;30270;40.238;18.256;2022-12-13T10:16:50;7.00;;;3.90;;
44558;SDS011;30270;40.238;18.256;2022-12-13T10:19:26;9.07;;;4.75;;
44558;SDS011;30270;40.238;18.256;2022-12-13T10:22:13;8.40;;;4.30;;
44558;SDS011;30270;40.238;18.256;2022-12-13T10:24:50;8.45;;;4.78;;
44558;SDS011;30270;40.238;18.256;2022-12-13T10:30:15;10.40;;;5.47;;
44558;SDS011;30270;40.238;18.256;2022-12-13T10:35:29;7.82;;;4.60;;
44558;SDS011;30270;40.238;18.256;2022-12-13T10:38:02;11.52;;;5.78;;
44558;SDS011;30270;40.238;18.256;2022-12-13T10:40:52;6.65;;;4.10;;
44558;SDS011;30270;40.238;18.256;2022-12-13T10:43:24;9.48;;;3.33;;
44558;SDS011;30270;40.238;18.256;2022-12-13T10:48:26;8.43;;;4.65;;
44558;SDS011;30270;40.238;18.256;2022-12-13T10:51:11;13.63;;;4.72;;
44558;SDS011;30270;40.238;18.256;2022-12-13T10:54:02;8.00;;;4.10;;
44558;SDS011;30270;40.238;18.256;2022-12-13T10:56:36;6.30;;;3.78;;
44558;SDS011;30270;40.238;18.256;2022-12-13T11:01:56;8.77;;;6.00;;
44558;SDS011;30270;40.238;18.256;2022-12-13T11:04:33;8.85;;;5.47;;
44558;SDS011;30270;40.238;18.256;2022-12-13T11:09:50;12.23;;;6.57;;
44558;SDS011;30270;40.238;18.256;2022-12-13T11:12:19;10.85;;;7.28;;
44558;SDS011;30270;40.238;18.256;2022-12-13T11:15:00;13.25;;;8.35;;
44558;SDS011;30270;40.238;18.256;2022-12-13T11:17:32;14.07;;;8.60;;
44558;SDS011;30270;40.238;18.256;2022-12-13T11:20:14;13.63;;;6.15;;
44558;SDS011;30270;40.238;18.256;2022-12-13T11:23:02;10.02;;;5.03;;
44558;SDS011;30270;40.238;18.256;2022-12-13T11:25:46;8.77;;;4.70;;
44558;SDS011;30270;40.238;18.256;2022-12-13T11:31:18;6.30;;;4.35;;
44558;SDS011;30270;40.238;18.256;2022-12-13T11:39:57;8.55;;;5.72;;
44558;SDS011;30270;40.238;18.256;2022-12-13T11:42:34;10.07;;;5.32;;
44558;SDS011;30270;40.238;18.256;2022-12-13T11:45:16;8.35;;;6.28;;
44558;SDS011;30270;40.238;18.256;2022-12-13T11:50:24;5.63;;;3.08;;
44558;SDS011;30270;40.238;18.256;2022-12-13T11:55:48;5.40;;;3.67;;
44558;SDS011;30270;40.238;18.256;2022-12-13T11:58:50;6.25;;;3.78;;
44558;SDS011;30270;40.238;18.256;2022-12-13T12:01:48;7.63;;;4.10;;
44558;SDS011;30270;40.238;18.256;2022-12-13T12:04:25;5.75;;;2.78;;
44558;SDS011;30270;40.238;18.256;2022-12-13T12:06:58;7.93;;;2.90;;
44558;SDS011;30270;40.238;18.256;2022-12-13T12:13:06;5.88;;;2.92;;
44558;SDS011;30270;40.238;18.256;2022-12-13T12:15:46;6.95;;;4.32;;
44558;SDS011;30270;40.238;18.256;2022-12-13T12:18:34;4.60;;;3.10;;
44558;SDS011;30270;40.238;18.256;2022-12-13T12:26:21;5.38;;;4.32;;
44558;SDS011;30270;40.238;18.256;2022-12-13T12:29:17;8.70;;;5.45;;
44558;SDS011;30270;40.238;18.256;2022-12-13T12:32:11;5.72;;;3.88;;
44558;SDS011;30270;40.238;18.256;2022-12-13T12:37:38;8.00;;;5.30;;
44558;SDS011;30270;40.238;18.256;2022-12-13T12:57:22;4.63;;;2.72;;
44558;SDS011;30270;40.238;18.256;2022-12-13T13:00:14;3.70;;;2.47;;
44558;SDS011;30270;40.238;18.256;2022-12-13T13:02:48;9.80;;;5.30;;
44558;SDS011;30270;40.238;18.256;2022-12-13T13:05:39;8.15;;;4.38;;
44558;SDS011;30270;40.238;18.256;2022-12-13T13:08:12;12.27;;;6.22;;
44558;SDS011;30270;40.238;18.256;2022-12-13T13:10:45;9.20;;;4.68;;
44558;SDS011;30270;40.238;18.256;2022-12-13T13:18:54;5.38;;;4.15;;
44558;SDS011;30270;40.238;18.256;2022-12-13T13:26:27;6.95;;;4.57;;
44558;SDS011;30270;40.238;18.256;2022-12-13T13:34:43;6.85;;;3.80;;
44558;SDS011;30270;40.238;18.256;2022-12-13T13:48:35;9.50;;;5.30;;
44558;SDS011;30270;40.238;18.256;2022-12-13T13:59:41;8.05;;;4.03;;
44558;SDS011;30270;40.238;18.256;2022-12-13T14:21:27;7.72;;;3.78;;
44558;SDS011;30270;40.238;18.256;2022-12-13T14:32:17;7.95;;;5.28;;
44558;SDS011;30270;40.238;18.256;2022-12-13T14:34:54;9.65;;;6.38;;
44558;SDS011;30270;40.238;18.256;2022-12-13T14:39:56;7.80;;;5.28;;
44558;SDS011;30270;40.238;18.256;2022-12-13T14:42:27;7.75;;;4.35;;
44558;SDS011;30270;40.238;18.256;2022-12-13T14:45:21;5.82;;;4.05;;
44558;SDS011;30270;40.238;18.256;2022-12-13T14:47:56;9.73;;;5.65;;
44558;SDS011;30270;40.238;18.256;2022-12-13T14:50:32;18.80;;;8.70;;
44558;SDS011;30270;40.238;18.256;2022-12-13T14:53:01;11.20;;;4.65;;
44558;SDS011;30270;40.238;18.256;2022-12-13T14:55:31;12.77;;;6.30;;
44558;SDS011;30270;40.238;18.256;2022-12-13T14:58:03;14.80;;;8.65;;
44558;SDS011;30270;40.238;18.256;2022-12-13T15:00:42;14.10;;;5.53;;
44558;SDS011;30270;40.238;18.256;2022-12-13T15:03:19;9.77;;;5.82;;
44558;SDS011;30270;40.238;18.256;2022-12-13T15:05:56;9.77;;;4.72;;
44558;SDS011;30270;40.238;18.256;2022-12-13T15:08:26;7.55;;;4.57;;
44558;SDS011;30270;40.238;18.256;2022-12-13T15:10:55;6.47;;;3.95;;
44558;SDS011;30270;40.238;18.256;2022-12-13T15:13:30;6.15;;;4.40;;
44558;SDS011;30270;40.238;18.256;2022-12-13T15:16:03;8.23;;;5.78;;
44558;SDS011;30270;40.238;18.256;2022-12-13T15:18:42;8.75;;;4.55;;
44558;SDS011;30270;40.238;18.256;2022-12-13T15:21:23;8.20;;;5.20;;
44558;SDS011;30270;40.238;18.256;2022-12-13T15:24:01;7.63;;;5.22;;
44558;SDS011;30270;40.238;18.256;2022-12-13T15:26:31;9.02;;;4.85;;
44558;SDS011;30270;40.238;18.256;2022-12-13T15:29:00;10.63;;;6.68;;
44558;SDS011;30270;40.238;18.256;2022-12-13T15:31:32;8.60;;;6.10;;
44558;SDS011;30270;40.238;18.256;2022-12-13T15:36:56;14.80;;;5.40;;
44558;SDS011;30270;40.238;18.256;2022-12-13T15:39:26;8.60;;;6.00;;
44558;SDS011;30270;40.238;18.256;2022-12-13T15:41:54;13.32;;;7.30;;
44558;SDS011;30270;40.238;18.256;2022-12-13T15:44:27;11.23;;;6.32;;
44558;SDS011;30270;40.238;18.256;2022-12-13T15:47:02;20.75;;;7.40;;
44558;SDS011;30270;40.238;18.256;2022-12-13T15:49:39;11.98;;;6.82;;
44558;SDS011;30270;40.238;18.256;2022-12-13T15:54:41;12.57;;;6.18;;
44558;SDS011;30270;40.238;18.256;2022-12-13T15:57:22;10.50;;;4.28;;
44558;SDS011;30270;40.238;18.256;2022-12-13T16:02:51;7.63;;;5.13;;
44558;SDS011;30270;40.238;18.256;2022-12-13T16:05:30;8.68;;;5.80;;
44558;SDS011;30270;40.238;18.256;2022-12-13T16:08:01;12.52;;;6.88;;
44558;SDS011;30270;40.238;18.256;2022-12-13T16:10:32;17.65;;;11.15;;
44558;SDS011;30270;40.238;18.256;2022-12-13T16:13:02;13.18;;;6.18;;
44558;SDS011;30270;40.238;18.256;2022-12-13T16:15:53;11.75;;;8.38;;
44558;SDS011;30270;40.238;18.256;2022-12-13T16:18:29;11.63;;;8.00;;
44558;SDS011;30270;40.238;18.256;2022-12-13T16:20:58;9.27;;;5.23;;
44558;SDS011;30270;40.238;18.256;2022-12-13T16:23:26;16.05;;;8.82;;
44558;SDS011;30270;40.238;18.256;2022-12-13T16:25:54;15.60;;;6.95;;
44558;SDS011;30270;40.238;18.256;2022-12-13T16:28:22;14.07;;;7.07;;
44558;SDS011;30270;40.238;18.256;2022-12-13T16:33:24;26.92;;;12.32;;
44558;SDS011;30270;40.238;18.256;2022-12-13T16:35:53;30.30;;;15.88;;
44558;SDS011;30270;40.238;18.256;2022-12-13T16:38:22;31.15;;;16.40;;
44558;SDS011;30270;40.238;18.256;2022-12-13T16:40:52;21.38;;;15.70;;
44558;SDS011;30270;40.238;18.256;2022-12-13T16:43:22;16.17;;;8.73;;
44558;SDS011;30270;40.238;18.256;2022-12-13T16:45:57;18.52;;;11.48;;
44558;SDS011;30270;40.238;18.256;2022-12-13T16:48:25;15.00;;;9.27;;
44558;SDS011;30270;40.238;18.256;2022-12-13T16:50:54;15.68;;;10.13;;
44558;SDS011;30270;40.238;18.256;2022-12-13T16:53:22;13.68;;;8.73;;
44558;SDS011;30270;40.238;18.256;2022-12-13T16:55:50;11.30;;;7.85;;
44558;SDS011;30270;40.238;18.256;2022-12-13T16:58:18;10.00;;;6.68;;
44558;SDS011;30270;40.238;18.256;2022-12-13T17:00:48;14.68;;;9.13;;
44558;SDS011;30270;40.238;18.256;2022-12-13T17:03:16;10.52;;;7.93;;
44558;SDS011;30270;40.238;18.256;2022-12-13T17:05:44;15.73;;;9.02;;
44558;SDS011;30270;40.238;18.256;2022-12-13T17:08:13;11.80;;;8.35;;
44558;SDS011;30270;40.238;18.256;2022-12-13T17:10:42;16.85;;;6.82;;
44558;SDS011;30270;40.238;18.256;2022-12-13T17:13:10;11.13;;;6.28;;
44558;SDS011;30270;40.238;18.256;2022-12-13T17:15:38;9.60;;;6.07;;
44558;SDS011;30270;40.238;18.256;2022-12-13T17:18:06;11.30;;;6.82;;
44558;SDS011;30270;40.238;18.256;2022-12-13T17:20:34;11.18;;;7.47;;
44558;SDS011;30270;40.238;18.256;2022-12-13T17:23:02;11.50;;;7.97;;
44558;SDS011;30270;40.238;18.256;2022-12-13T17:25:31;13.43;;;8.82;;
44558;SDS011;30270;40.238;18.256;2022-12-13T17:28:05;19.73;;;12.30;;
44558;SDS011;30270;40.238;18.256;2022-12-13T17:30:34;19.17;;;12.93;;
44558;SDS011;30270;40.238;18.256;2022-12-13T17:33:03;14.23;;;8.75;;
44558;SDS011;30270;40.238;18.256;2022-12-13T17:35:37;14.23;;;9.65;;
44558;SDS011;30270;40.238;18.256;2022-12-13T17:38:05;20.70;;;9.73;;
44558;SDS011;30270;40.238;18.256;2022-12-13T17:40:34;22.15;;;15.07;;